Time;durP1;ratioP1;P1;durP2;ratioP2;P2;SDS_P1;SDS_P2;PMS_P1;PMS_P2;Temp;Humidity;BMP_temperature;BMP_pressure;BME280_temperature;BME280_humidity;BME280_pressure;Samples;Min_cycle;Max_cycle;Signal;HPM_P1;HPM_P2
2022/11/11 00:01:14;;;;;;;;;;;;;;;;;;5052687;28;909;-49
2022/11/11 00:03:59;;;;;;;;;;;;;;;;;;5051491;28;1914;-52
2022/11/11 00:06:46;;;;;;;;;;;;;;;;;;5052556;28;1056;-47
2022/11/11 00:09:32;;;;;;;;;;;;;;;;;;5052463;28;913;-48
2022/11/11 00:12:17;;;;;;;;;;;;;;;;;;5052609;28;1194;-48
2022/11/11 00:15:06;;;;;;;;;;;;;;;;;;5052763;28;1029;-50
2022/11/11 00:27:09;;;;;;;;;;;;;;;;;;5052261;28;1261;-51
2022/11/11 00:29:55;;;;;;;;;;;;;;;;;;5052061;28;1148;-47
2022/11/11 00:32:40;;;;;;;;;;;;;;;;;;5051997;28;1425;-47
2022/11/11 00:38:45;;;;;;;;;;;;;;;;;;5051997;28;1003;-48
2022/11/11 00:41:31;;;;;;;;;;;;;;;;;;5051787;28;1190;-48
2022/11/11 00:44:17;;;;;;;;;;;;;;;;;;5051950;28;1950;-49
2022/11/11 00:53:32;;;;;;;;;;;;;;;;;;5050633;28;1341;-47
2022/11/11 00:56:18;;;;;;;;;;;;;;;;;;5051743;28;1160;-46
2022/11/11 00:59:05;;;;;;;;;;;;;;;;;;5051097;28;1896;-49
2022/11/11 01:01:51;;;;;;;;;;;;;;;;;;5050885;28;1091;-47
2022/11/11 01:04:37;;;;;;;;;;;;;;;;;;5038188;28;1975;-47
2022/11/11 01:07:23;;;;;;;;;;;;;;;;;;5051365;28;1239;-48
2022/11/11 01:10:10;;;;;;;;;;;;;;;;;;5050078;28;1204;-47
2022/11/11 01:13:10;;;;;;;;;;;;;;;;;;5043086;28;1088;-50
2022/11/11 01:16:01;;;;;;;;;;;;;;;;;;5051363;28;962;-48
2022/11/11 01:18:48;;;;;;;;;;;;;;;;;;5051485;28;1196;-46
2022/11/11 01:21:34;;;;;;;;;;;;;;;;;;5051293;28;1005;-50
2022/11/11 01:24:20;;;;;;;;;;;;;;;;;;5051195;28;1906;-47
2022/11/11 01:27:06;;;;;;;;;;;;;;;;;;5051116;28;1035;-48
2022/11/11 01:29:52;;;;;;;;;;;;;;;;;;5051252;28;1160;-48
2022/11/11 01:32:38;;;;;;;;;;;;;;;;;;5051060;28;1324;-45
2022/11/11 01:35:23;;;;;;;;;;;;;;;;;;5050771;28;917;-47
2022/11/11 01:38:10;;;;;;;;;;;;;;;;;;5051130;28;1231;-46
2022/11/11 01:40:56;;;;;;;;;;;;;;;;;;5050015;28;889;-47
2022/11/11 01:43:42;;;;;;;;;;;;;;;;;;5050688;28;1906;-51
2022/11/11 01:46:39;;;;;;;;;;;;;;;;;;5050553;28;1044;-50
2022/11/11 01:49:28;;;;;;;;;;;;;;;;;;5050878;28;967;-45
2022/11/11 01:52:31;;;;;;;;;;;;;;;;;;5050886;28;1000;-47
2022/11/11 01:55:19;;;;;;;;;;;;;;;;;;5044113;28;1198;-50
2022/11/11 01:58:08;;;;;;;;;;;;;;;;;;5050434;28;1304;-51
2022/11/11 02:00:54;;;;;;;;;;;;;;;;;;5049590;28;1003;-49
2022/11/11 02:05:40;;;;;;;;;;;;;;;;;;5050662;28;1981;-50
2022/11/11 02:06:48;;;;;;;;;;;;;;;;;;5051057;28;996;-51
2022/11/11 02:09:37;;;;;;;;;;;;;;;;;;5050597;28;1083;-49
2022/11/11 02:15:27;;;;;;;;;;;;;;;;;;5054521;28;976;-51
2022/11/11 02:18:14;;;;;;;;;;;;;;;;;;5054439;28;1437;-49
2022/11/11 02:21:00;;;;;;;;;;;;;;;;;;5054502;28;1039;-49
2022/11/11 02:24:07;;;;;;;;;;;;;;;;;;5054394;28;1965;-51
2022/11/11 02:26:54;;;;;;;;;;;;;;;;;;5054409;28;930;-50
2022/11/11 02:29:45;;;;;;;;;;;;;;;;;;5053813;28;1164;-47
2022/11/11 02:32:31;;;;;;;;;;;;;;;;;;5054308;28;1189;-47
2022/11/11 02:35:30;;;;;;;;;;;;;;;;;;5054341;28;1185;-51
2022/11/11 02:38:16;;;;;;;;;;;;;;;;;;5054352;28;996;-51
2022/11/11 02:44:06;;;;;;;;;;;;;;;;;;5053838;28;1891;-50
2022/11/11 02:46:52;;;;;;;;;;;;;;;;;;5051874;28;1094;-49
2022/11/11 02:49:41;;;;;;;;;;;;;;;;;;5044008;28;1427;-48
2022/11/11 02:52:28;;;;;;;;;;;;;;;;;;5051235;28;1141;-48
2022/11/11 02:55:17;;;;;;;;;;;;;;;;;;5053607;28;1127;-49
2022/11/11 02:58:06;;;;;;;;;;;;;;;;;;5053234;28;1119;-51
2022/11/11 03:00:58;;;;;;;;;;;;;;;;;;5053642;28;1005;-44
2022/11/11 03:03:49;;;;;;;;;;;;;;;;;;5053593;28;1979;-51
2022/11/11 03:06:37;;;;;;;;;;;;;;;;;;5053525;28;1292;-47
2022/11/11 03:09:25;;;;;;;;;;;;;;;;;;5053386;28;1179;-47
2022/11/11 03:12:12;;;;;;;;;;;;;;;;;;5053165;28;1325;-47
2022/11/11 03:14:58;;;;;;;;;;;;;;;;;;5053531;28;1180;-49
2022/11/11 03:17:45;;;;;;;;;;;;;;;;;;5053225;28;976;-52
2022/11/11 03:23:35;;;;;;;;;;;;;;;;;;5051745;28;1946;-48
2022/11/11 03:26:21;;;;;;;;;;;;;;;;;;5053431;28;1221;-47
2022/11/11 03:29:07;;;;;;;;;;;;;;;;;;5053101;28;1075;-48
2022/11/11 03:31:53;;;;;;;;;;;;;;;;;;5052826;28;1069;-49
2022/11/11 03:34:39;;;;;;;;;;;;;;;;;;5052848;28;1176;-51
2022/11/11 03:40:29;;;;;;;;;;;;;;;;;;5052773;28;957;-50
2022/11/11 03:43:16;;;;;;;;;;;;;;;;;;5050676;28;1178;-47
2022/11/11 03:46:02;;;;;;;;;;;;;;;;;;5032692;28;1062;-51
2022/11/11 03:48:48;;;;;;;;;;;;;;;;;;5032866;28;1128;-52
2022/11/11 03:51:34;;;;;;;;;;;;;;;;;;5051162;28;1214;-47
2022/11/11 03:54:20;;;;;;;;;;;;;;;;;;5052677;28;985;-53
2022/11/11 04:00:28;;;;;;;;;;;;;;;;;;4991072;28;1411;-51
2022/11/11 04:16:04;;;;;;;;;;;;;;;;;;5052322;28;1067;-52
2022/11/11 04:21:51;;;;;;;;;;;;;;;;;;5052125;28;919;-48
2022/11/11 04:27:41;;;;;;;;;;;;;;;;;;5031879;28;1027;-52
2022/11/11 04:30:27;;;;;;;;;;;;;;;;;;5031988;28;1230;-52
2022/11/11 04:33:13;;;;;;;;;;;;;;;;;;5031006;28;1071;-51
2022/11/11 04:35:59;;;;;;;;;;;;;;;;;;5031740;28;985;-51
2022/11/11 04:41:49;;;;;;;;;;;;;;;;;;5050064;28;1110;-49
2022/11/11 04:48:07;;;;;;;;;;;;;;;;;;5051588;28;1212;-51
2022/11/11 04:50:53;;;;;;;;;;;;;;;;;;5051922;28;1083;-50
2022/11/11 04:53:39;;;;;;;;;;;;;;;;;;5051447;28;943;-49
2022/11/11 04:59:29;;;;;;;;;;;;;;;;;;5051113;28;1056;-50
2022/11/11 05:05:18;;;;;;;;;;;;;;;;;;5051280;28;1916;-52
2022/11/11 05:11:08;;;;;;;;;;;;;;;;;;5051439;28;1020;-48
2022/11/11 05:23:08;;;;;;;;;;;;;;;;;;5051151;28;1162;-52
2022/11/11 05:25:54;;;;;;;;;;;;;;;;;;5051279;28;1934;-52
2022/11/11 05:28:40;;;;;;;;;;;;;;;;;;5050844;28;1211;-53
2022/11/11 05:31:26;;;;;;;;;;;;;;;;;;5050998;28;1150;-52
2022/11/11 05:34:12;;;;;;;;;;;;;;;;;;5051366;28;974;-51
2022/11/11 05:36:58;;;;;;;;;;;;;;;;;;5050767;28;1142;-53
2022/11/11 05:39:44;;;;;;;;;;;;;;;;;;5050944;28;1255;-53
2022/11/11 05:42:30;;;;;;;;;;;;;;;;;;5051115;28;1092;-52
2022/11/11 05:45:16;;;;;;;;;;;;;;;;;;5050491;28;1965;-53
2022/11/11 05:48:02;;;;;;;;;;;;;;;;;;5054123;28;1019;-50
2022/11/11 05:50:48;;;;;;;;;;;;;;;;;;5054093;28;953;-51
2022/11/11 05:53:34;;;;;;;;;;;;;;;;;;5054998;28;912;-49
2022/11/11 05:56:20;;;;;;;;;;;;;;;;;;5054944;28;1242;-50
2022/11/11 05:59:05;;;;;;;;;;;;;;;;;;5054770;28;1367;-49
2022/11/11 06:01:51;;;;;;;;;;;;;;;;;;5054909;28;999;-50
2022/11/11 06:04:37;;;;;;;;;;;;;;;;;;5054514;28;1914;-51
2022/11/11 06:07:22;;;;;;;;;;;;;;;;;;5053813;28;1033;-48
2022/11/11 06:13:14;;;;;;;;;;;;;;;;;;5054623;28;1213;-51
2022/11/11 06:15:59;;;;;;;;;;;;;;;;;;5054646;28;981;-49
2022/11/11 06:18:46;;;;;;;;;;;;;;;;;;5054350;28;1214;-52
2022/11/11 06:21:55;;;;;;;;;;;;;;;;;;5054332;28;1341;-50
2022/11/11 06:24:37;;;;;;;;;;;;;;;;;;5054301;28;1989;-48
2022/11/11 06:27:23;;;;;;;;;;;;;;;;;;5054481;28;1231;-46
2022/11/11 06:30:09;;;;;;;;;;;;;;;;;;5054547;28;1410;-49
2022/11/11 06:33:14;;;;;;;;;;;;;;;;;;5054165;28;1194;-50
2022/11/11 06:36:01;;;;;;;;;;;;;;;;;;5054171;28;1014;-52
2022/11/11 06:38:46;;;;;;;;;;;;;;;;;;5054127;28;1158;-48
2022/11/11 06:41:32;;;;;;;;;;;;;;;;;;5053937;28;1079;-52
2022/11/11 06:44:18;;;;;;;;;;;;;;;;;;5053876;28;1961;-48
2022/11/11 06:47:04;;;;;;;;;;;;;;;;;;5054106;28;1306;-46
2022/11/11 06:49:51;;;;;;;;;;;;;;;;;;5053548;28;1034;-48
2022/11/11 06:52:37;;;;;;;;;;;;;;;;;;5053905;28;1131;-47
2022/11/11 06:55:22;;;;;;;;;;;;;;;;;;5054029;28;1190;-45
2022/11/11 06:58:16;;;;;;;;;;;;;;;;;;5053639;28;1278;-49
2022/11/11 07:01:05;;;;;;;;;;;;;;;;;;5053807;28;1135;-46
2022/11/11 07:03:51;;;;;;;;;;;;;;;;;;5053867;28;1153;-46
2022/11/11 07:06:37;;;;;;;;;;;;;;;;;;5053339;28;1914;-48
2022/11/11 07:09:24;;;;;;;;;;;;;;;;;;5053774;28;1218;-49
2022/11/11 07:12:10;;;;;;;;;;;;;;;;;;5053451;28;1067;-50
2022/11/11 07:14:56;;;;;;;;;;;;;;;;;;5053467;28;1006;-47
2022/11/11 07:17:41;;;;;;;;;;;;;;;;;;5053290;28;1448;-48
2022/11/11 07:20:27;;;;;;;;;;;;;;;;;;5053531;28;1265;-48
2022/11/11 07:23:14;;;;;;;;;;;;;;;;;;5053088;28;909;-49
2022/11/11 07:26:00;;;;;;;;;;;;;;;;;;5053156;28;1913;-48
2022/11/11 07:28:47;;;;;;;;;;;;;;;;;;5053073;28;1170;-48
2022/11/11 07:31:33;;;;;;;;;;;;;;;;;;5053036;28;1101;-48
2022/11/11 07:34:19;;;;;;;;;;;;;;;;;;5053196;28;1255;-48
2022/11/11 07:37:04;;;;;;;;;;;;;;;;;;5053029;28;1344;-50
2022/11/11 07:39:50;;;;;;;;;;;;;;;;;;5052667;28;1186;-46
2022/11/11 07:42:37;;;;;;;;;;;;;;;;;;5052948;28;1295;-47
2022/11/11 07:45:23;;;;;;;;;;;;;;;;;;5033408;28;1914;-48
2022/11/11 07:48:09;;;;;;;;;;;;;;;;;;5032555;28;1478;-46
2022/11/11 07:50:54;;;;;;;;;;;;;;;;;;5033114;28;1168;-48
2022/11/11 07:53:40;;;;;;;;;;;;;;;;;;5032872;28;1076;-48
2022/11/11 07:56:26;;;;;;;;;;;;;;;;;;5031615;28;1430;-46
2022/11/11 07:59:12;;;;;;;;;;;;;;;;;;5032415;28;1317;-47
2022/11/11 08:02:00;;;;;;;;;;;;;;;;;;5032858;28;1248;-49
2022/11/11 08:04:47;;;;;;;;;;;;;;;;;;5032577;28;1914;-46
2022/11/11 08:07:38;;;;;;;;;;;;;;;;;;5032267;28;1073;-47
2022/11/11 08:10:24;;;;;;;;;;;;;;;;;;5031966;28;1069;-47
2022/11/11 08:16:15;;;;;;;;;;;;;;;;;;5032450;28;976;-47
2022/11/11 08:19:01;;;;;;;;;;;;;;;;;;5032182;28;1162;-49
2022/11/11 08:21:47;;;;;;;;;;;;;;;;;;5032064;28;1079;-47
2022/11/11 08:24:33;;;;;;;;;;;;;;;;;;5032036;28;1118;-46
2022/11/11 08:27:39;;;;;;;;;;;;;;;;;;5032047;28;1435;-45
2022/11/11 08:30:27;;;;;;;;;;;;;;;;;;5032309;28;1012;-47
2022/11/11 08:33:13;;;;;;;;;;;;;;;;;;5032012;28;1011;-50
2022/11/11 08:36:19;;;;;;;;;;;;;;;;;;5032269;28;984;-47
2022/11/11 08:39:06;;;;;;;;;;;;;;;;;;5030762;28;1148;-46
2022/11/11 08:41:52;;;;;;;;;;;;;;;;;;5032024;28;1240;-45
2022/11/11 08:44:38;;;;;;;;;;;;;;;;;;5045286;28;1127;-48
2022/11/11 08:47:23;;;;;;;;;;;;;;;;;;5051973;28;984;-51
2022/11/11 08:50:09;;;;;;;;;;;;;;;;;;5051612;28;1200;-46
2022/11/11 08:52:56;;;;;;;;;;;;;;;;;;5051597;28;1067;-48
2022/11/11 08:55:42;;;;;;;;;;;;;;;;;;5051433;28;1216;-47
2022/11/11 08:58:28;;;;;;;;;;;;;;;;;;5051416;28;1251;-47
2022/11/11 09:01:15;;;;;;;;;;;;;;;;;;5051298;28;1102;-46
2022/11/11 09:04:00;;;;;;;;;;;;;;;;;;5051432;28;1251;-47
2022/11/11 09:07:07;;;;;;;;;;;;;;;;;;5051402;28;1962;-47
2022/11/11 09:09:53;;;;;;;;;;;;;;;;;;5051601;28;1198;-44
2022/11/11 09:12:39;;;;;;;;;;;;;;;;;;5051374;28;1089;-46
2022/11/11 09:15:25;;;;;;;;;;;;;;;;;;5051447;28;1185;-46
2022/11/11 09:18:11;;;;;;;;;;;;;;;;;;5051384;28;1156;-47
2022/11/11 09:20:57;;;;;;;;;;;;;;;;;;5050634;28;1246;-46
2022/11/11 09:23:43;;;;;;;;;;;;;;;;;;5050981;28;984;-50
2022/11/11 09:26:28;;;;;;;;;;;;;;;;;;5051068;28;1920;-49
2022/11/11 09:29:14;;;;;;;;;;;;;;;;;;5051197;28;966;-52
2022/11/11 09:32:00;;;;;;;;;;;;;;;;;;5051129;28;1347;-49
2022/11/11 09:34:45;;;;;;;;;;;;;;;;;;5050950;28;1081;-48
2022/11/11 09:37:31;;;;;;;;;;;;;;;;;;5050957;28;1251;-46
2022/11/11 09:40:20;;;;;;;;;;;;;;;;;;5049900;28;1202;-47
2022/11/11 09:43:15;;;;;;;;;;;;;;;;;;5050798;28;1505;-48
2022/11/11 09:46:18;;;;;;;;;;;;;;;;;;5050660;28;1911;-49
2022/11/11 09:49:10;;;;;;;;;;;;;;;;;;5050569;28;996;-47
2022/11/11 09:52:07;;;;;;;;;;;;;;;;;;5050995;28;1146;-51
2022/11/11 09:54:54;;;;;;;;;;;;;;;;;;5051169;28;1474;-50
2022/11/11 09:57:47;;;;;;;;;;;;;;;;;;5050902;28;1065;-48
2022/11/11 10:00:35;;;;;;;;;;;;;;;;;;5050880;28;1147;-48
2022/11/11 10:03:22;;;;;;;;;;;;;;;;;;5050708;28;1098;-48
2022/11/11 10:06:22;;;;;;;;;;;;;;;;;;5050444;28;1906;-46
2022/11/11 10:09:16;;;;;;;;;;;;;;;;;;5050712;28;1084;-48
2022/11/11 10:12:07;;;;;;;;;;;;;;;;;;5050676;28;1232;-47
2022/11/11 10:14:54;;;;;;;;;;;;;;;;;;5050714;28;1081;-45
2022/11/11 10:17:45;;;;;;;;;;;;;;;;;;5050574;28;1292;-48
2022/11/11 10:20:33;;;;;;;;;;;;;;;;;;5050362;28;1062;-48
2022/11/11 10:23:23;;;;;;;;;;;;;;;;;;5050578;28;988;-49
2022/11/11 10:26:16;;;;;;;;;;;;;;;;;;5050425;28;1910;-46
2022/11/11 10:29:04;;;;;;;;;;;;;;;;;;5050476;28;977;-49
2022/11/11 10:32:04;;;;;;;;;;;;;;;;;;5050586;28;1102;-47
2022/11/11 10:34:50;;;;;;;;;;;;;;;;;;5054035;28;1320;-49
2022/11/11 10:37:40;;;;;;;;;;;;;;;;;;5054151;28;1264;-48
2022/11/11 10:40:34;;;;;;;;;;;;;;;;;;5054293;28;1157;-50
2022/11/11 10:43:27;;;;;;;;;;;;;;;;;;5054020;28;1305;-46
2022/11/11 10:46:15;;;;;;;;;;;;;;;;;;5054046;28;1902;-46
2022/11/11 10:49:09;;;;;;;;;;;;;;;;;;5053848;28;1092;-47
2022/11/11 10:51:59;;;;;;;;;;;;;;;;;;5054088;28;1067;-51
2022/11/11 10:54:51;;;;;;;;;;;;;;;;;;5053780;28;976;-46
2022/11/11 10:57:43;;;;;;;;;;;;;;;;;;5053569;28;1181;-47
2022/11/11 11:00:31;;;;;;;;;;;;;;;;;;5053624;28;945;-49
2022/11/11 11:03:34;;;;;;;;;;;;;;;;;;5053947;28;1189;-51
2022/11/11 11:06:21;;;;;;;;;;;;;;;;;;5053395;28;1965;-46
2022/11/11 11:09:20;;;;;;;;;;;;;;;;;;5053341;28;1052;-49
2022/11/11 11:12:16;;;;;;;;;;;;;;;;;;5053463;28;1145;-46
2022/11/11 11:15:04;;;;;;;;;;;;;;;;;;5053456;28;977;-48
2022/11/11 11:17:55;;;;;;;;;;;;;;;;;;5053349;28;1030;-47
2022/11/11 11:20:57;;;;;;;;;;;;;;;;;;5053081;28;871;-47
2022/11/11 11:23:45;;;;;;;;;;;;;;;;;;5053189;28;1327;-48
2022/11/11 11:26:48;;;;;;;;;;;;;;;;;;5053097;28;1910;-48
2022/11/11 11:29:36;;;;;;;;;;;;;;;;;;5052961;28;1142;-47
2022/11/11 11:32:30;;;;;;;;;;;;;;;;;;5053710;28;1067;-47
2022/11/11 11:35:29;;;;;;;;;;;;;;;;;;5053084;28;1024;-47
2022/11/11 11:38:15;;;;;;;;;;;;;;;;;;5052895;28;971;-48
2022/11/11 11:41:01;;;;;;;;;;;;;;;;;;5052970;28;1273;-48
2022/11/11 11:43:47;;;;;;;;;;;;;;;;;;5045314;28;1271;-48
2022/11/11 11:46:41;;;;;;;;;;;;;;;;;;5032878;28;1910;-47
2022/11/11 11:49:44;;;;;;;;;;;;;;;;;;5033067;28;1012;-46
2022/11/11 11:52:42;;;;;;;;;;;;;;;;;;5033005;28;1245;-48
2022/11/11 11:55:30;;;;;;;;;;;;;;;;;;5032777;28;1162;-46
2022/11/11 11:58:18;;;;;;;;;;;;;;;;;;5032534;28;1047;-47
2022/11/11 12:01:24;;;;;;;;;;;;;;;;;;5032591;28;1073;-49
2022/11/11 12:04:28;;;;;;;;;;;;;;;;;;5032758;28;1100;-50
2022/11/11 12:07:20;;;;;;;;;;;;;;;;;;5032206;28;1906;-48
2022/11/11 12:10:24;;;;;;;;;;;;;;;;;;5032407;28;1322;-46
2022/11/11 12:13:10;;;;;;;;;;;;;;;;;;5032340;28;1304;-46
2022/11/11 12:16:06;;;;;;;;;;;;;;;;;;5032658;28;1165;-48
2022/11/11 12:19:10;;;;;;;;;;;;;;;;;;5032394;28;1002;-46
2022/11/11 12:21:56;;;;;;;;;;;;;;;;;;5032304;28;1339;-46
2022/11/11 12:24:48;;;;;;;;;;;;;;;;;;5032086;28;982;-47
2022/11/11 12:27:37;;;;;;;;;;;;;;;;;;5031686;28;1930;-48
2022/11/11 12:30:28;;;;;;;;;;;;;;;;;;5032017;28;1040;-47
2022/11/11 12:33:35;;;;;;;;;;;;;;;;;;5032317;28;1022;-51
2022/11/11 12:36:40;;;;;;;;;;;;;;;;;;5032109;28;1242;-46
2022/11/11 12:39:28;;;;;;;;;;;;;;;;;;5031986;28;1070;-48
2022/11/11 12:42:35;;;;;;;;;;;;;;;;;;5031928;28;1235;-49
2022/11/11 12:45:23;;;;;;;;;;;;;;;;;;5051084;28;1290;-45
2022/11/11 12:48:15;;;;;;;;;;;;;;;;;;5051703;28;956;-46
2022/11/11 12:51:10;;;;;;;;;;;;;;;;;;5051710;28;1226;-49
2022/11/11 12:54:08;;;;;;;;;;;;;;;;;;5051771;28;1075;-45
2022/11/11 12:57:06;;;;;;;;;;;;;;;;;;5051294;28;1475;-46
2022/11/11 13:00:03;;;;;;;;;;;;;;;;;;5051018;28;1411;-47
2022/11/11 13:03:07;;;;;;;;;;;;;;;;;;5050874;28;1037;-44
2022/11/11 13:06:01;;;;;;;;;;;;;;;;;;5051430;28;1902;-48
2022/11/11 13:08:53;;;;;;;;;;;;;;;;;;5051342;28;1361;-48
2022/11/11 13:11:47;;;;;;;;;;;;;;;;;;5051346;28;1187;-48
2022/11/11 13:14:56;;;;;;;;;;;;;;;;;;5051255;28;1164;-48
2022/11/11 13:17:42;;;;;;;;;;;;;;;;;;5051072;28;2358;-45
2022/11/11 13:20:41;;;;;;;;;;;;;;;;;;5051157;28;1118;-46
2022/11/11 13:23:27;;;;;;;;;;;;;;;;;;5051276;28;1368;-48
2022/11/11 13:26:23;;;;;;;;;;;;;;;;;;5050947;28;1906;-49
2022/11/11 13:29:15;;;;;;;;;;;;;;;;;;5051028;28;1170;-50
2022/11/11 13:32:04;;;;;;;;;;;;;;;;;;5050898;28;933;-46
2022/11/11 13:34:50;;;;;;;;;;;;;;;;;;5051090;28;1071;-48
2022/11/11 13:37:37;;;;;;;;;;;;;;;;;;5050423;28;1017;-47
2022/11/11 13:40:23;;;;;;;;;;;;;;;;;;5049707;28;925;-44
2022/11/11 13:43:36;;;;;;;;;;;;;;;;;;5050389;28;1190;-47
2022/11/11 13:46:42;;;;;;;;;;;;;;;;;;5050720;28;1906;-47
2022/11/11 13:49:44;;;;;;;;;;;;;;;;;;5050641;28;1206;-47
2022/11/11 13:52:34;;;;;;;;;;;;;;;;;;5050777;28;1162;-51
2022/11/11 13:55:33;;;;;;;;;;;;;;;;;;5050960;28;1358;-48
2022/11/11 13:58:25;;;;;;;;;;;;;;;;;;5050603;28;1108;-48
2022/11/11 14:01:11;;;;;;;;;;;;;;;;;;5050569;28;1103;-48
2022/11/11 14:03:59;;;;;;;;;;;;;;;;;;5050860;28;1159;-48
2022/11/11 14:06:47;;;;;;;;;;;;;;;;;;5050716;28;1979;-50
2022/11/11 14:09:52;;;;;;;;;;;;;;;;;;5054520;28;908;-50
2022/11/11 14:12:40;;;;;;;;;;;;;;;;;;5054654;28;1067;-52
2022/11/11 14:15:32;;;;;;;;;;;;;;;;;;5054892;28;1020;-47
2022/11/11 14:18:18;;;;;;;;;;;;;;;;;;5054453;28;1120;-46
2022/11/11 14:21:03;;;;;;;;;;;;;;;;;;5054633;28;970;-47
2022/11/11 14:23:53;;;;;;;;;;;;;;;;;;5054407;28;1090;-47
2022/11/11 14:26:42;;;;;;;;;;;;;;;;;;5054391;28;1906;-48
2022/11/11 14:29:34;;;;;;;;;;;;;;;;;;5054156;28;1187;-49
2022/11/11 14:32:23;;;;;;;;;;;;;;;;;;5054466;28;1138;-49
2022/11/11 14:35:27;;;;;;;;;;;;;;;;;;5052514;28;1233;-47
2022/11/11 14:38:34;;;;;;;;;;;;;;;;;;5052713;28;885;-47
2022/11/11 14:41:39;;;;;;;;;;;;;;;;;;5053009;28;1099;-50
2022/11/11 14:44:24;;;;;;;;;;;;;;;;;;5053025;28;1149;-48
2022/11/11 14:47:10;;;;;;;;;;;;;;;;;;5052784;28;1973;-51
2022/11/11 14:49:58;;;;;;;;;;;;;;;;;;5053762;28;1083;-51
2022/11/11 14:52:43;;;;;;;;;;;;;;;;;;5054031;28;993;-46
2022/11/11 14:55:37;;;;;;;;;;;;;;;;;;5053476;28;988;-47
2022/11/11 14:58:24;;;;;;;;;;;;;;;;;;5053738;28;1291;-48
2022/11/11 15:01:10;;;;;;;;;;;;;;;;;;5053950;28;1085;-50
2022/11/11 15:03:56;;;;;;;;;;;;;;;;;;5053962;28;845;-52
2022/11/11 15:06:44;;;;;;;;;;;;;;;;;;5053371;28;1982;-53
2022/11/11 15:09:46;;;;;;;;;;;;;;;;;;5053702;28;936;-50
2022/11/11 15:12:44;;;;;;;;;;;;;;;;;;5053612;28;1003;-45
2022/11/11 15:15:35;;;;;;;;;;;;;;;;;;5053840;28;1139;-47
2022/11/11 15:18:23;;;;;;;;;;;;;;;;;;5043672;28;944;-47
2022/11/11 15:21:18;;;;;;;;;;;;;;;;;;5044753;28;1020;-49
2022/11/11 15:24:23;;;;;;;;;;;;;;;;;;5053551;28;1378;-52
2022/11/11 15:27:27;;;;;;;;;;;;;;;;;;5053358;28;1995;-49
2022/11/11 15:30:17;;;;;;;;;;;;;;;;;;5053353;28;1217;-47
2022/11/11 15:33:09;;;;;;;;;;;;;;;;;;5052962;28;1140;-49
2022/11/11 15:35:54;;;;;;;;;;;;;;;;;;5053484;28;1152;-52
2022/11/11 15:38:40;;;;;;;;;;;;;;;;;;5053136;28;914;-49
2022/11/11 15:41:27;;;;;;;;;;;;;;;;;;5053138;28;995;-46
2022/11/11 15:44:19;;;;;;;;;;;;;;;;;;5052596;28;1131;-48
2022/11/11 15:47:05;;;;;;;;;;;;;;;;;;5052748;28;1919;-48
2022/11/11 15:49:51;;;;;;;;;;;;;;;;;;5052980;28;1007;-51
2022/11/11 15:52:36;;;;;;;;;;;;;;;;;;5052894;28;1183;-48
2022/11/11 15:55:23;;;;;;;;;;;;;;;;;;5052944;28;1085;-49
2022/11/11 15:58:15;;;;;;;;;;;;;;;;;;5052765;28;1088;-50
2022/11/11 16:01:04;;;;;;;;;;;;;;;;;;5052819;28;984;-50
2022/11/11 16:03:50;;;;;;;;;;;;;;;;;;5052620;28;1345;-49
2022/11/11 16:06:37;;;;;;;;;;;;;;;;;;5052767;28;1968;-51
2022/11/11 16:09:27;;;;;;;;;;;;;;;;;;5052436;28;951;-52
2022/11/11 16:12:17;;;;;;;;;;;;;;;;;;5052341;28;1099;-53
2022/11/11 16:15:08;;;;;;;;;;;;;;;;;;5051057;28;1161;-49
2022/11/11 16:18:04;;;;;;;;;;;;;;;;;;5051625;28;1181;-49
2022/11/11 16:21:02;;;;;;;;;;;;;;;;;;5052223;28;1061;-49
2022/11/11 16:23:48;;;;;;;;;;;;;;;;;;5052429;28;1123;-49
2022/11/11 16:26:35;;;;;;;;;;;;;;;;;;5050916;28;2108;-47
2022/11/11 16:29:22;;;;;;;;;;;;;;;;;;5049938;28;1182;-47
2022/11/11 16:32:23;;;;;;;;;;;;;;;;;;5051882;28;1010;-52
2022/11/11 16:35:30;;;;;;;;;;;;;;;;;;5052042;28;1088;-50
2022/11/11 16:38:30;;;;;;;;;;;;;;;;;;5052270;28;1093;-52
2022/11/11 16:41:27;;;;;;;;;;;;;;;;;;5052225;28;897;-48
2022/11/11 16:44:29;;;;;;;;;;;;;;;;;;5042086;28;1131;-52
2022/11/11 16:47:27;;;;;;;;;;;;;;;;;;5031993;28;1914;-49
2022/11/11 16:50:17;;;;;;;;;;;;;;;;;;5032054;28;1072;-51
2022/11/11 16:53:03;;;;;;;;;;;;;;;;;;5031729;28;1087;-50
2022/11/11 16:55:49;;;;;;;;;;;;;;;;;;5031830;28;1070;-47
2022/11/11 16:58:39;;;;;;;;;;;;;;;;;;5031623;28;1194;-50
2022/11/11 17:01:29;;;;;;;;;;;;;;;;;;5031941;28;1320;-49
2022/11/11 17:04:15;;;;;;;;;;;;;;;;;;5031792;28;1000;-48
2022/11/11 17:07:00;;;;;;;;;;;;;;;;;;5031573;28;1910;-49
2022/11/11 17:09:47;;;;;;;;;;;;;;;;;;5031697;28;1221;-50
2022/11/11 17:12:33;;;;;;;;;;;;;;;;;;5031674;28;1041;-49
2022/11/11 17:15:20;;;;;;;;;;;;;;;;;;5031431;28;1129;-49
2022/11/11 17:18:08;;;;;;;;;;;;;;;;;;5031638;28;989;-47
2022/11/11 17:20:54;;;;;;;;;;;;;;;;;;5031494;28;902;-47
2022/11/11 17:23:40;;;;;;;;;;;;;;;;;;5031142;28;1296;-50
2022/11/11 17:26:27;;;;;;;;;;;;;;;;;;5031358;28;1010;-50
2022/11/11 17:29:13;;;;;;;;;;;;;;;;;;5031347;28;910;-52
2022/11/11 17:32:00;;;;;;;;;;;;;;;;;;5031285;28;988;-50
2022/11/11 17:34:46;;;;;;;;;;;;;;;;;;5031208;28;1008;-52
2022/11/11 17:37:33;;;;;;;;;;;;;;;;;;5031315;28;981;-49
2022/11/11 17:40:19;;;;;;;;;;;;;;;;;;5031177;28;1151;-50
2022/11/11 17:43:05;;;;;;;;;;;;;;;;;;5031139;28;1167;-50
2022/11/11 17:45:50;;;;;;;;;;;;;;;;;;5050689;28;1213;-50
2022/11/11 17:48:36;;;;;;;;;;;;;;;;;;5050763;28;1975;-51
2022/11/11 17:51:23;;;;;;;;;;;;;;;;;;5051074;28;980;-46
2022/11/11 17:54:09;;;;;;;;;;;;;;;;;;5050223;28;1160;-45
2022/11/11 17:56:55;;;;;;;;;;;;;;;;;;5050890;28;1062;-50
2022/11/11 17:59:41;;;;;;;;;;;;;;;;;;5050460;28;1177;-49
2022/11/11 18:02:27;;;;;;;;;;;;;;;;;;5050304;28;971;-51
2022/11/11 18:05:13;;;;;;;;;;;;;;;;;;5050403;28;1029;-48
2022/11/11 18:07:59;;;;;;;;;;;;;;;;;;5050984;28;1949;-49
2022/11/11 18:10:46;;;;;;;;;;;;;;;;;;5050570;28;1331;-48
2022/11/11 18:13:31;;;;;;;;;;;;;;;;;;5050665;28;1173;-51
2022/11/11 18:16:18;;;;;;;;;;;;;;;;;;5050782;28;1288;-49
2022/11/11 18:19:04;;;;;;;;;;;;;;;;;;5050732;28;1061;-51
2022/11/11 18:21:50;;;;;;;;;;;;;;;;;;5050375;28;1335;-51
2022/11/11 18:24:36;;;;;;;;;;;;;;;;;;5050796;28;973;-51
2022/11/11 18:27:22;;;;;;;;;;;;;;;;;;5050376;28;1912;-53
2022/11/11 18:30:08;;;;;;;;;;;;;;;;;;5050284;28;1285;-48
2022/11/11 18:32:54;;;;;;;;;;;;;;;;;;5050821;28;1252;-52
2022/11/11 18:35:41;;;;;;;;;;;;;;;;;;5050451;28;1284;-48
2022/11/11 18:38:28;;;;;;;;;;;;;;;;;;5050295;28;979;-48
2022/11/11 18:41:15;;;;;;;;;;;;;;;;;;5050468;28;968;-47
2022/11/11 18:44:01;;;;;;;;;;;;;;;;;;5050582;28;1172;-51
2022/11/11 18:46:47;;;;;;;;;;;;;;;;;;5050325;28;1348;-48
2022/11/11 18:49:33;;;;;;;;;;;;;;;;;;5050362;28;1064;-47
2022/11/11 18:52:19;;;;;;;;;;;;;;;;;;5050392;28;1060;-49
2022/11/11 18:55:05;;;;;;;;;;;;;;;;;;5053616;28;1062;-50
2022/11/11 18:57:51;;;;;;;;;;;;;;;;;;5053916;28;1064;-52
2022/11/11 19:00:37;;;;;;;;;;;;;;;;;;5053975;28;1186;-50
2022/11/11 19:03:22;;;;;;;;;;;;;;;;;;5053504;28;961;-51
2022/11/11 19:06:10;;;;;;;;;;;;;;;;;;5053935;28;977;-50
2022/11/11 19:09:00;;;;;;;;;;;;;;;;;;5053962;28;1902;-48
2022/11/11 19:11:46;;;;;;;;;;;;;;;;;;5053530;28;910;-47
2022/11/11 19:14:32;;;;;;;;;;;;;;;;;;5053780;28;1450;-52
2022/11/11 19:17:18;;;;;;;;;;;;;;;;;;5053531;28;1262;-49
2022/11/11 19:20:05;;;;;;;;;;;;;;;;;;5053308;28;1063;-49
2022/11/11 19:22:51;;;;;;;;;;;;;;;;;;5053517;28;1286;-46
2022/11/11 19:25:37;;;;;;;;;;;;;;;;;;5053280;28;1067;-48
2022/11/11 19:28:23;;;;;;;;;;;;;;;;;;5053237;28;1906;-55
2022/11/11 19:31:11;;;;;;;;;;;;;;;;;;5053321;28;1138;-50
2022/11/11 19:33:57;;;;;;;;;;;;;;;;;;5053405;28;968;-49
2022/11/11 19:36:43;;;;;;;;;;;;;;;;;;5053312;28;1018;-47
2022/11/11 19:39:28;;;;;;;;;;;;;;;;;;5053361;28;1187;-52
2022/11/11 19:42:14;;;;;;;;;;;;;;;;;;5053101;28;955;-50
2022/11/11 19:45:01;;;;;;;;;;;;;;;;;;5036526;28;1385;-46
2022/11/11 19:47:48;;;;;;;;;;;;;;;;;;5032944;28;1969;-50
2022/11/11 19:50:34;;;;;;;;;;;;;;;;;;5033165;28;959;-49
2022/11/11 19:53:20;;;;;;;;;;;;;;;;;;5032929;28;1046;-48
2022/11/11 19:56:10;;;;;;;;;;;;;;;;;;5032934;28;1248;-48
2022/11/11 19:58:56;;;;;;;;;;;;;;;;;;5032891;28;1267;-51
2022/11/11 20:01:42;;;;;;;;;;;;;;;;;;5032678;28;1254;-47
2022/11/11 20:04:28;;;;;;;;;;;;;;;;;;5032732;28;1383;-47
2022/11/11 20:07:14;;;;;;;;;;;;;;;;;;5031747;28;967;-45
2022/11/11 20:10:01;;;;;;;;;;;;;;;;;;5032207;28;1099;-47
2022/11/11 20:12:49;;;;;;;;;;;;;;;;;;5032779;28;1186;-51
2022/11/11 20:15:35;;;;;;;;;;;;;;;;;;5032482;28;1152;-49
2022/11/11 20:18:21;;;;;;;;;;;;;;;;;;5032335;28;1403;-48
2022/11/11 20:21:06;;;;;;;;;;;;;;;;;;5031765;28;1087;-49
2022/11/11 20:23:55;;;;;;;;;;;;;;;;;;5032135;28;1084;-49
2022/11/11 20:26:40;;;;;;;;;;;;;;;;;;5032282;28;1289;-47
2022/11/11 20:29:28;;;;;;;;;;;;;;;;;;5032396;28;1914;-49
2022/11/11 20:32:13;;;;;;;;;;;;;;;;;;5031216;28;1179;-49
2022/11/11 20:34:59;;;;;;;;;;;;;;;;;;5032338;28;1234;-49
2022/11/11 20:37:45;;;;;;;;;;;;;;;;;;5032040;28;974;-49
2022/11/11 20:40:31;;;;;;;;;;;;;;;;;;5031979;28;1177;-48
2022/11/11 20:43:18;;;;;;;;;;;;;;;;;;5034113;28;1101;-49
2022/11/11 20:46:05;;;;;;;;;;;;;;;;;;5051896;28;960;-49
2022/11/11 20:48:51;;;;;;;;;;;;;;;;;;5051755;28;1914;-46
2022/11/11 20:51:38;;;;;;;;;;;;;;;;;;5051703;28;1285;-48
2022/11/11 20:54:24;;;;;;;;;;;;;;;;;;5051769;28;1171;-48
2022/11/11 20:57:12;;;;;;;;;;;;;;;;;;5050842;28;1268;-48
2022/11/11 21:00:01;;;;;;;;;;;;;;;;;;5051455;28;1359;-47
2022/11/11 21:02:48;;;;;;;;;;;;;;;;;;5051602;28;987;-52